sensor_id;sensor_type;location;lat;lon;timestamp;temperature;humidity
46562;DHT22;32289;42.688;23.330;2024-03-07T00:02:15;7.30;99.90
46562;DHT22;32289;42.688;23.330;2024-03-07T00:05:57;7.20;99.90
46562;DHT22;32289;42.688;23.330;2024-03-07T00:09:38;7.20;99.90
46562;DHT22;32289;42.688;23.330;2024-03-07T00:13:19;7.20;99.90
46562;DHT22;32289;42.688;23.330;2024-03-07T00:17:01;7.30;99.90
46562;DHT22;32289;42.688;23.330;2024-03-07T00:20:43;7.10;99.90
46562;DHT22;32289;42.688;23.330;2024-03-07T00:24:24;6.80;99.90
46562;DHT22;32289;42.688;23.330;2024-03-07T00:28:05;6.70;99.90
46562;DHT22;32289;42.688;23.330;2024-03-07T00:31:46;6.60;99.90
46562;DHT22;32289;42.688;23.330;2024-03-07T00:35:27;6.50;99.90
46562;DHT22;32289;42.688;23.330;2024-03-07T00:39:08;6.50;99.90
46562;DHT22;32289;42.688;23.330;2024-03-07T00:42:49;6.50;99.90
46562;DHT22;32289;42.688;23.330;2024-03-07T00:46:29;6.40;99.90
46562;DHT22;32289;42.688;23.330;2024-03-07T00:50:10;6.40;99.90
46562;DHT22;32289;42.688;23.330;2024-03-07T00:53:51;6.50;99.90
46562;DHT22;32289;42.688;23.330;2024-03-07T00:57:32;6.50;99.90
46562;DHT22;32289;42.688;23.330;2024-03-07T01:01:12;6.50;99.90
46562;DHT22;32289;42.688;23.330;2024-03-07T01:04:54;6.60;99.90
46562;DHT22;32289;42.688;23.330;2024-03-07T01:08:35;6.40;99.90
46562;DHT22;32289;42.688;23.330;2024-03-07T01:12:17;6.40;99.90
46562;DHT22;32289;42.688;23.330;2024-03-07T01:15:57;6.40;99.90
46562;DHT22;32289;42.688;23.330;2024-03-07T01:19:38;6.40;99.90
46562;DHT22;32289;42.688;23.330;2024-03-07T01:23:19;6.30;99.90
46562;DHT22;32289;42.688;23.330;2024-03-07T01:27:00;6.30;99.90
46562;DHT22;32289;42.688;23.330;2024-03-07T01:30:41;6.40;99.90
46562;DHT22;32289;42.688;23.330;2024-03-07T01:34:21;6.40;99.90
46562;DHT22;32289;42.688;23.330;2024-03-07T01:38:02;6.40;99.90
46562;DHT22;32289;42.688;23.330;2024-03-07T01:41:43;6.30;99.90
46562;DHT22;32289;42.688;23.330;2024-03-07T01:45:24;6.30;99.90
46562;DHT22;32289;42.688;23.330;2024-03-07T01:49:05;6.30;99.90
46562;DHT22;32289;42.688;23.330;2024-03-07T01:52:49;6.30;99.90
46562;DHT22;32289;42.688;23.330;2024-03-07T01:56:32;6.20;99.90
46562;DHT22;32289;42.688;23.330;2024-03-07T02:00:13;6.30;99.90
46562;DHT22;32289;42.688;23.330;2024-03-07T02:03:53;6.50;99.90
46562;DHT22;32289;42.688;23.330;2024-03-07T02:07:34;6.60;99.90
46562;DHT22;32289;42.688;23.330;2024-03-07T02:11:15;6.50;99.90
46562;DHT22;32289;42.688;23.330;2024-03-07T02:14:56;6.60;99.90
46562;DHT22;32289;42.688;23.330;2024-03-07T02:18:40;6.50;99.90
46562;DHT22;32289;42.688;23.330;2024-03-07T02:22:21;6.60;99.90
46562;DHT22;32289;42.688;23.330;2024-03-07T02:26:02;6.60;99.90
46562;DHT22;32289;42.688;23.330;2024-03-07T02:29:43;6.60;99.90
46562;DHT22;32289;42.688;23.330;2024-03-07T02:33:24;6.30;99.90
46562;DHT22;32289;42.688;23.330;2024-03-07T02:37:05;6.30;99.90
46562;DHT22;32289;42.688;23.330;2024-03-07T02:40:45;6.10;99.90
46562;DHT22;32289;42.688;23.330;2024-03-07T02:44:29;6.20;99.90
46562;DHT22;32289;42.688;23.330;2024-03-07T02:48:12;6.20;99.90
46562;DHT22;32289;42.688;23.330;2024-03-07T02:51:52;6.10;99.90
46562;DHT22;32289;42.688;23.330;2024-03-07T02:55:33;5.80;99.90
46562;DHT22;32289;42.688;23.330;2024-03-07T02:59:14;5.90;99.90
46562;DHT22;32289;42.688;23.330;2024-03-07T03:02:56;6.10;99.90
46562;DHT22;32289;42.688;23.330;2024-03-07T03:06:36;5.90;99.90
46562;DHT22;32289;42.688;23.330;2024-03-07T03:10:18;5.80;99.90
46562;DHT22;32289;42.688;23.330;2024-03-07T03:13:58;5.80;99.90
46562;DHT22;32289;42.688;23.330;2024-03-07T03:17:39;5.60;99.90
46562;DHT22;32289;42.688;23.330;2024-03-07T03:21:20;5.50;99.90
46562;DHT22;32289;42.688;23.330;2024-03-07T03:25:01;5.70;99.90
46562;DHT22;32289;42.688;23.330;2024-03-07T03:28:42;5.90;99.90
46562;DHT22;32289;42.688;23.330;2024-03-07T03:32:23;6.00;99.90
46562;DHT22;32289;42.688;23.330;2024-03-07T03:36:04;5.90;99.90
46562;DHT22;32289;42.688;23.330;2024-03-07T03:39:45;5.70;99.90
46562;DHT22;32289;42.688;23.330;2024-03-07T03:43:27;6.00;99.90
46562;DHT22;32289;42.688;23.330;2024-03-07T03:47:08;6.20;99.90
46562;DHT22;32289;42.688;23.330;2024-03-07T03:50:49;5.90;99.90
46562;DHT22;32289;42.688;23.330;2024-03-07T03:54:29;5.90;99.90
46562;DHT22;32289;42.688;23.330;2024-03-07T03:58:10;5.80;99.90
46562;DHT22;32289;42.688;23.330;2024-03-07T04:01:51;5.80;99.90
46562;DHT22;32289;42.688;23.330;2024-03-07T04:05:31;5.70;99.90
46562;DHT22;32289;42.688;23.330;2024-03-07T04:09:12;5.70;99.90
46562;DHT22;32289;42.688;23.330;2024-03-07T04:12:55;5.50;99.90
46562;DHT22;32289;42.688;23.330;2024-03-07T04:16:36;5.60;99.90
46562;DHT22;32289;42.688;23.330;2024-03-07T04:20:17;5.50;99.90
46562;DHT22;32289;42.688;23.330;2024-03-07T04:23:58;5.60;99.90
46562;DHT22;32289;42.688;23.330;2024-03-07T04:27:39;5.50;99.90
46562;DHT22;32289;42.688;23.330;2024-03-07T04:31:20;5.40;99.90
46562;DHT22;32289;42.688;23.330;2024-03-07T04:35:01;5.40;99.90
46562;DHT22;32289;42.688;23.330;2024-03-07T04:38:44;5.40;99.90
46562;DHT22;32289;42.688;23.330;2024-03-07T04:42:25;5.30;99.90
46562;DHT22;32289;42.688;23.330;2024-03-07T04:46:06;5.40;99.90
46562;DHT22;32289;42.688;23.330;2024-03-07T04:49:47;5.40;99.90
46562;DHT22;32289;42.688;23.330;2024-03-07T04:53:27;5.10;99.90
46562;DHT22;32289;42.688;23.330;2024-03-07T04:57:08;5.20;99.90
46562;DHT22;32289;42.688;23.330;2024-03-07T05:00:49;4.90;99.90
46562;DHT22;32289;42.688;23.330;2024-03-07T05:04:30;4.90;99.90
46562;DHT22;32289;42.688;23.330;2024-03-07T05:08:13;4.90;99.90
46562;DHT22;32289;42.688;23.330;2024-03-07T05:11:54;4.90;99.90
46562;DHT22;32289;42.688;23.330;2024-03-07T05:15:35;5.00;99.90
46562;DHT22;32289;42.688;23.330;2024-03-07T05:19:15;4.80;99.90
46562;DHT22;32289;42.688;23.330;2024-03-07T05:22:56;4.60;99.90
46562;DHT22;32289;42.688;23.330;2024-03-07T05:26:37;4.70;99.90
46562;DHT22;32289;42.688;23.330;2024-03-07T05:30:20;4.60;99.90
46562;DHT22;32289;42.688;23.330;2024-03-07T05:34:04;4.70;99.90
46562;DHT22;32289;42.688;23.330;2024-03-07T05:37:48;4.70;99.90
46562;DHT22;32289;42.688;23.330;2024-03-07T05:41:31;4.80;99.90
46562;DHT22;32289;42.688;23.330;2024-03-07T05:45:11;4.90;99.90
46562;DHT22;32289;42.688;23.330;2024-03-07T05:48:54;4.90;99.90
46562;DHT22;32289;42.688;23.330;2024-03-07T05:52:36;4.90;99.90
46562;DHT22;32289;42.688;23.330;2024-03-07T05:56:17;4.80;99.90
46562;DHT22;32289;42.688;23.330;2024-03-07T05:59:58;4.90;99.90
46562;DHT22;32289;42.688;23.330;2024-03-07T06:03:39;5.10;99.90
46562;DHT22;32289;42.688;23.330;2024-03-07T06:07:20;5.00;99.90
46562;DHT22;32289;42.688;23.330;2024-03-07T06:11:01;4.90;99.90
46562;DHT22;32289;42.688;23.330;2024-03-07T06:14:42;5.20;99.90
46562;DHT22;32289;42.688;23.330;2024-03-07T06:18:23;5.20;99.90
46562;DHT22;32289;42.688;23.330;2024-03-07T06:22:03;5.10;99.90
46562;DHT22;32289;42.688;23.330;2024-03-07T06:25:49;5.40;99.90
46562;DHT22;32289;42.688;23.330;2024-03-07T06:29:34;5.60;99.90
46562;DHT22;32289;42.688;23.330;2024-03-07T06:33:15;5.20;99.90
46562;DHT22;32289;42.688;23.330;2024-03-07T06:36:56;4.90;99.90
46562;DHT22;32289;42.688;23.330;2024-03-07T06:40:38;4.90;99.90
46562;DHT22;32289;42.688;23.330;2024-03-07T06:44:20;5.10;99.90
46562;DHT22;32289;42.688;23.330;2024-03-07T06:48:07;5.00;99.90
46562;DHT22;32289;42.688;23.330;2024-03-07T06:51:48;5.30;99.90
46562;DHT22;32289;42.688;23.330;2024-03-07T06:55:28;5.70;99.90
46562;DHT22;32289;42.688;23.330;2024-03-07T06:59:09;5.30;99.90
46562;DHT22;32289;42.688;23.330;2024-03-07T07:02:50;5.50;99.90
46562;DHT22;32289;42.688;23.330;2024-03-07T07:06:31;5.50;99.90
46562;DHT22;32289;42.688;23.330;2024-03-07T07:10:12;5.10;99.90
46562;DHT22;32289;42.688;23.330;2024-03-07T07:13:58;5.40;99.90
46562;DHT22;32289;42.688;23.330;2024-03-07T07:17:39;5.50;99.90
46562;DHT22;32289;42.688;23.330;2024-03-07T07:21:19;6.10;99.90
46562;DHT22;32289;42.688;23.330;2024-03-07T07:25:01;6.10;99.90
46562;DHT22;32289;42.688;23.330;2024-03-07T07:28:42;6.70;99.90
46562;DHT22;32289;42.688;23.330;2024-03-07T07:32:22;6.90;99.90
46562;DHT22;32289;42.688;23.330;2024-03-07T07:36:03;6.70;99.90
46562;DHT22;32289;42.688;23.330;2024-03-07T07:39:44;6.70;99.90
46562;DHT22;32289;42.688;23.330;2024-03-07T07:43:26;6.30;99.90
46562;DHT22;32289;42.688;23.330;2024-03-07T07:47:09;6.30;99.90
46562;DHT22;32289;42.688;23.330;2024-03-07T07:50:51;6.80;99.90
46562;DHT22;32289;42.688;23.330;2024-03-07T07:54:32;6.40;99.90
46562;DHT22;32289;42.688;23.330;2024-03-07T07:58:12;6.80;99.90
46562;DHT22;32289;42.688;23.330;2024-03-07T08:01:53;6.90;99.90
46562;DHT22;32289;42.688;23.330;2024-03-07T08:05:37;6.60;99.90
46562;DHT22;32289;42.688;23.330;2024-03-07T08:09:18;7.00;99.90
46562;DHT22;32289;42.688;23.330;2024-03-07T08:13:00;6.80;99.90
46562;DHT22;32289;42.688;23.330;2024-03-07T08:16:41;7.00;99.90
46562;DHT22;32289;42.688;23.330;2024-03-07T08:20:23;7.60;99.90
46562;DHT22;32289;42.688;23.330;2024-03-07T08:24:04;7.50;99.90
46562;DHT22;32289;42.688;23.330;2024-03-07T08:27:55;7.10;99.90
46562;DHT22;32289;42.688;23.330;2024-03-07T08:31:36;6.90;99.90
46562;DHT22;32289;42.688;23.330;2024-03-07T08:35:18;6.80;99.90
46562;DHT22;32289;42.688;23.330;2024-03-07T08:38:59;7.00;99.90
46562;DHT22;32289;42.688;23.330;2024-03-07T08:42:43;7.00;99.90
46562;DHT22;32289;42.688;23.330;2024-03-07T08:46:23;6.90;99.90
46562;DHT22;32289;42.688;23.330;2024-03-07T08:50:05;6.90;99.90
46562;DHT22;32289;42.688;23.330;2024-03-07T08:53:48;6.80;99.90
46562;DHT22;32289;42.688;23.330;2024-03-07T08:57:30;6.90;99.90
46562;DHT22;32289;42.688;23.330;2024-03-07T09:01:11;6.90;99.90
46562;DHT22;32289;42.688;23.330;2024-03-07T09:04:52;6.70;99.90
46562;DHT22;32289;42.688;23.330;2024-03-07T09:08:32;7.00;99.90
46562;DHT22;32289;42.688;23.330;2024-03-07T09:12:13;7.10;99.90
46562;DHT22;32289;42.688;23.330;2024-03-07T09:15:54;6.90;99.90
46562;DHT22;32289;42.688;23.330;2024-03-07T09:19:34;6.80;99.90
46562;DHT22;32289;42.688;23.330;2024-03-07T09:23:15;6.70;99.90
46562;DHT22;32289;42.688;23.330;2024-03-07T09:26:57;6.80;99.90
46562;DHT22;32289;42.688;23.330;2024-03-07T09:30:37;7.00;99.90
46562;DHT22;32289;42.688;23.330;2024-03-07T09:34:20;7.00;99.90
46562;DHT22;32289;42.688;23.330;2024-03-07T09:38:01;7.40;99.90
46562;DHT22;32289;42.688;23.330;2024-03-07T09:41:42;7.50;99.90
46562;DHT22;32289;42.688;23.330;2024-03-07T09:45:30;7.70;99.90
46562;DHT22;32289;42.688;23.330;2024-03-07T09:49:13;7.70;99.90
46562;DHT22;32289;42.688;23.330;2024-03-07T09:52:55;8.20;99.90
46562;DHT22;32289;42.688;23.330;2024-03-07T09:56:36;8.00;99.90
46562;DHT22;32289;42.688;23.330;2024-03-07T10:00:20;8.10;99.90
46562;DHT22;32289;42.688;23.330;2024-03-07T10:04:10;8.00;99.90
46562;DHT22;32289;42.688;23.330;2024-03-07T10:07:53;7.80;99.90
46562;DHT22;32289;42.688;23.330;2024-03-07T10:11:33;7.60;99.90
46562;DHT22;32289;42.688;23.330;2024-03-07T10:15:15;7.90;99.90
46562;DHT22;32289;42.688;23.330;2024-03-07T10:18:57;7.90;99.90
46562;DHT22;32289;42.688;23.330;2024-03-07T10:22:38;8.20;99.90
46562;DHT22;32289;42.688;23.330;2024-03-07T10:26:19;8.20;99.90
46562;DHT22;32289;42.688;23.330;2024-03-07T10:30:00;9.30;99.90
46562;DHT22;32289;42.688;23.330;2024-03-07T10:33:41;9.40;99.90
46562;DHT22;32289;42.688;23.330;2024-03-07T10:37:22;9.20;99.90
46562;DHT22;32289;42.688;23.330;2024-03-07T10:41:06;8.60;99.90
46562;DHT22;32289;42.688;23.330;2024-03-07T10:44:50;9.10;99.90
46562;DHT22;32289;42.688;23.330;2024-03-07T10:48:39;9.30;99.90
46562;DHT22;32289;42.688;23.330;2024-03-07T10:52:31;9.10;99.90
46562;DHT22;32289;42.688;23.330;2024-03-07T10:56:29;8.30;99.90
46562;DHT22;32289;42.688;23.330;2024-03-07T11:00:14;8.40;99.90
46562;DHT22;32289;42.688;23.330;2024-03-07T11:04:13;8.30;99.90
46562;DHT22;32289;42.688;23.330;2024-03-07T11:08:00;8.30;99.90
46562;DHT22;32289;42.688;23.330;2024-03-07T11:11:47;8.30;99.90
46562;DHT22;32289;42.688;23.330;2024-03-07T11:15:28;8.50;99.90
46562;DHT22;32289;42.688;23.330;2024-03-07T11:19:31;8.70;99.90
46562;DHT22;32289;42.688;23.330;2024-03-07T11:23:44;8.50;99.90
46562;DHT22;32289;42.688;23.330;2024-03-07T11:27:25;8.40;99.90
46562;DHT22;32289;42.688;23.330;2024-03-07T11:34:49;7.90;99.90
46562;DHT22;32289;42.688;23.330;2024-03-07T11:38:31;7.80;99.90
46562;DHT22;32289;42.688;23.330;2024-03-07T11:42:24;8.50;99.90
46562;DHT22;32289;42.688;23.330;2024-03-07T11:46:09;8.50;99.90
46562;DHT22;32289;42.688;23.330;2024-03-07T11:49:52;8.10;99.90
46562;DHT22;32289;42.688;23.330;2024-03-07T11:53:33;8.50;99.90
46562;DHT22;32289;42.688;23.330;2024-03-07T11:57:19;8.20;99.90
46562;DHT22;32289;42.688;23.330;2024-03-07T12:01:00;8.30;99.90
46562;DHT22;32289;42.688;23.330;2024-03-07T12:04:41;8.40;99.90
46562;DHT22;32289;42.688;23.330;2024-03-07T12:08:22;8.20;99.90
46562;DHT22;32289;42.688;23.330;2024-03-07T12:12:04;8.10;99.90
46562;DHT22;32289;42.688;23.330;2024-03-07T12:15:46;8.10;99.90
46562;DHT22;32289;42.688;23.330;2024-03-07T12:19:27;8.20;99.90
46562;DHT22;32289;42.688;23.330;2024-03-07T12:23:08;8.10;99.90
46562;DHT22;32289;42.688;23.330;2024-03-07T12:26:49;8.10;99.90
46562;DHT22;32289;42.688;23.330;2024-03-07T12:30:32;8.10;99.90
46562;DHT22;32289;42.688;23.330;2024-03-07T12:34:13;8.20;99.90
46562;DHT22;32289;42.688;23.330;2024-03-07T12:37:54;8.00;99.90
46562;DHT22;32289;42.688;23.330;2024-03-07T12:41:35;7.70;99.90
46562;DHT22;32289;42.688;23.330;2024-03-07T12:45:16;7.70;99.90
46562;DHT22;32289;42.688;23.330;2024-03-07T12:49:00;7.60;99.90
46562;DHT22;32289;42.688;23.330;2024-03-07T12:52:41;7.70;99.90
46562;DHT22;32289;42.688;23.330;2024-03-07T12:56:21;7.70;99.90
46562;DHT22;32289;42.688;23.330;2024-03-07T13:00:03;7.80;99.90
46562;DHT22;32289;42.688;23.330;2024-03-07T13:03:56;7.60;99.90
46562;DHT22;32289;42.688;23.330;2024-03-07T13:07:37;7.80;99.90
46562;DHT22;32289;42.688;23.330;2024-03-07T13:11:18;7.70;99.90
46562;DHT22;32289;42.688;23.330;2024-03-07T13:14:59;7.90;99.90
46562;DHT22;32289;42.688;23.330;2024-03-07T13:18:40;7.70;99.90
46562;DHT22;32289;42.688;23.330;2024-03-07T13:22:20;7.90;99.90
46562;DHT22;32289;42.688;23.330;2024-03-07T13:26:02;8.10;99.90
46562;DHT22;32289;42.688;23.330;2024-03-07T13:29:48;8.00;99.90
46562;DHT22;32289;42.688;23.330;2024-03-07T13:33:30;7.70;99.90
46562;DHT22;32289;42.688;23.330;2024-03-07T13:37:10;7.60;99.90
46562;DHT22;32289;42.688;23.330;2024-03-07T13:40:53;7.70;99.90
46562;DHT22;32289;42.688;23.330;2024-03-07T13:44:34;7.50;99.90
46562;DHT22;32289;42.688;23.330;2024-03-07T13:48:15;7.40;99.90
46562;DHT22;32289;42.688;23.330;2024-03-07T13:51:57;7.50;99.90
46562;DHT22;32289;42.688;23.330;2024-03-07T13:59:46;7.40;99.90
46562;DHT22;32289;42.688;23.330;2024-03-07T14:17:02;7.60;99.90
46562;DHT22;32289;42.688;23.330;2024-03-07T14:21:17;7.30;99.90
46562;DHT22;32289;42.688;23.330;2024-03-07T14:33:28;7.00;99.90
46562;DHT22;32289;42.688;23.330;2024-03-07T14:37:19;6.80;99.90
46562;DHT22;32289;42.688;23.330;2024-03-07T14:41:03;6.70;99.90
46562;DHT22;32289;42.688;23.330;2024-03-07T14:44:44;6.70;99.90
46562;DHT22;32289;42.688;23.330;2024-03-07T14:48:26;6.80;99.90
46562;DHT22;32289;42.688;23.330;2024-03-07T14:52:08;6.70;99.90
46562;DHT22;32289;42.688;23.330;2024-03-07T14:55:51;6.70;99.90
46562;DHT22;32289;42.688;23.330;2024-03-07T14:59:32;6.70;99.90
46562;DHT22;32289;42.688;23.330;2024-03-07T15:03:14;6.50;99.90
46562;DHT22;32289;42.688;23.330;2024-03-07T15:06:58;6.50;99.90
46562;DHT22;32289;42.688;23.330;2024-03-07T15:10:45;6.50;99.90
46562;DHT22;32289;42.688;23.330;2024-03-07T15:14:28;6.60;99.90
46562;DHT22;32289;42.688;23.330;2024-03-07T15:18:08;6.60;99.90
46562;DHT22;32289;42.688;23.330;2024-03-07T15:21:50;6.50;99.90
46562;DHT22;32289;42.688;23.330;2024-03-07T15:25:33;6.40;99.90
46562;DHT22;32289;42.688;23.330;2024-03-07T15:29:14;6.40;99.90
46562;DHT22;32289;42.688;23.330;2024-03-07T15:32:59;6.40;99.90
46562;DHT22;32289;42.688;23.330;2024-03-07T15:36:40;6.40;99.90
46562;DHT22;32289;42.688;23.330;2024-03-07T15:40:22;6.30;99.90
46562;DHT22;32289;42.688;23.330;2024-03-07T15:44:03;6.40;99.90
46562;DHT22;32289;42.688;23.330;2024-03-07T15:47:48;6.40;99.90
46562;DHT22;32289;42.688;23.330;2024-03-07T15:51:29;6.40;99.90
46562;DHT22;32289;42.688;23.330;2024-03-07T15:55:10;6.60;99.90
46562;DHT22;32289;42.688;23.330;2024-03-07T15:58:54;6.60;99.90
46562;DHT22;32289;42.688;23.330;2024-03-07T16:02:35;6.40;99.90
46562;DHT22;32289;42.688;23.330;2024-03-07T16:06:16;6.70;99.90
46562;DHT22;32289;42.688;23.330;2024-03-07T16:09:57;6.60;99.90
46562;DHT22;32289;42.688;23.330;2024-03-07T16:13:38;6.50;99.90
46562;DHT22;32289;42.688;23.330;2024-03-07T16:17:19;6.40;99.90
46562;DHT22;32289;42.688;23.330;2024-03-07T16:21:00;6.40;99.90
46562;DHT22;32289;42.688;23.330;2024-03-07T16:24:43;6.50;99.90
46562;DHT22;32289;42.688;23.330;2024-03-07T16:28:24;6.40;99.90
46562;DHT22;32289;42.688;23.330;2024-03-07T16:32:08;6.40;99.90
46562;DHT22;32289;42.688;23.330;2024-03-07T16:35:51;6.50;99.90
46562;DHT22;32289;42.688;23.330;2024-03-07T16:39:32;6.40;99.90
46562;DHT22;32289;42.688;23.330;2024-03-07T16:43:14;6.40;99.90
46562;DHT22;32289;42.688;23.330;2024-03-07T16:46:55;6.30;99.90
46562;DHT22;32289;42.688;23.330;2024-03-07T16:50:36;6.30;99.90
46562;DHT22;32289;42.688;23.330;2024-03-07T16:54:20;6.20;99.90
46562;DHT22;32289;42.688;23.330;2024-03-07T16:58:02;6.30;99.90
46562;DHT22;32289;42.688;23.330;2024-03-07T17:01:43;6.30;99.90
46562;DHT22;32289;42.688;23.330;2024-03-07T17:05:27;6.20;99.90
46562;DHT22;32289;42.688;23.330;2024-03-07T17:09:08;6.20;99.90
46562;DHT22;32289;42.688;23.330;2024-03-07T17:12:51;6.20;99.90
46562;DHT22;32289;42.688;23.330;2024-03-07T17:16:32;6.20;99.90
46562;DHT22;32289;42.688;23.330;2024-03-07T17:20:16;6.10;99.90
46562;DHT22;32289;42.688;23.330;2024-03-07T17:23:58;6.10;99.90
46562;DHT22;32289;42.688;23.330;2024-03-07T17:27:40;6.20;99.90
46562;DHT22;32289;42.688;23.330;2024-03-07T17:31:21;6.20;99.90
46562;DHT22;32289;42.688;23.330;2024-03-07T17:35:05;6.10;99.90
46562;DHT22;32289;42.688;23.330;2024-03-07T17:38:51;6.20;99.90
46562;DHT22;32289;42.688;23.330;2024-03-07T17:42:31;5.90;99.90
46562;DHT22;32289;42.688;23.330;2024-03-07T17:46:12;5.90;99.90
46562;DHT22;32289;42.688;23.330;2024-03-07T17:49:53;5.70;99.90
46562;DHT22;32289;42.688;23.330;2024-03-07T17:53:33;5.80;99.90
46562;DHT22;32289;42.688;23.330;2024-03-07T17:57:15;5.90;99.90
46562;DHT22;32289;42.688;23.330;2024-03-07T18:00:56;5.90;99.90
46562;DHT22;32289;42.688;23.330;2024-03-07T18:04:38;5.90;99.90
46562;DHT22;32289;42.688;23.330;2024-03-07T18:08:19;6.00;99.90
46562;DHT22;32289;42.688;23.330;2024-03-07T18:12:00;5.90;99.90
46562;DHT22;32289;42.688;23.330;2024-03-07T18:15:41;5.90;99.90
46562;DHT22;32289;42.688;23.330;2024-03-07T18:19:22;6.10;99.90
46562;DHT22;32289;42.688;23.330;2024-03-07T18:23:05;5.80;99.90
46562;DHT22;32289;42.688;23.330;2024-03-07T18:26:47;5.90;99.90
46562;DHT22;32289;42.688;23.330;2024-03-07T18:30:28;5.90;99.90
46562;DHT22;32289;42.688;23.330;2024-03-07T18:34:10;5.80;99.90
46562;DHT22;32289;42.688;23.330;2024-03-07T18:37:51;5.70;99.90
46562;DHT22;32289;42.688;23.330;2024-03-07T18:41:32;5.60;99.90
46562;DHT22;32289;42.688;23.330;2024-03-07T18:45:14;5.40;99.90
46562;DHT22;32289;42.688;23.330;2024-03-07T18:49:01;5.50;99.90
46562;DHT22;32289;42.688;23.330;2024-03-07T18:52:49;5.40;99.90
46562;DHT22;32289;42.688;23.330;2024-03-07T18:56:34;5.40;99.90
46562;DHT22;32289;42.688;23.330;2024-03-07T19:00:19;5.30;99.90
46562;DHT22;32289;42.688;23.330;2024-03-07T19:04:08;5.40;99.90
46562;DHT22;32289;42.688;23.330;2024-03-07T19:07:49;5.40;99.90
46562;DHT22;32289;42.688;23.330;2024-03-07T19:11:29;5.20;99.90
46562;DHT22;32289;42.688;23.330;2024-03-07T19:15:11;5.00;99.90
46562;DHT22;32289;42.688;23.330;2024-03-07T19:18:52;5.00;99.90
46562;DHT22;32289;42.688;23.330;2024-03-07T19:22:32;5.10;99.90
46562;DHT22;32289;42.688;23.330;2024-03-07T19:26:14;5.20;99.90
46562;DHT22;32289;42.688;23.330;2024-03-07T19:29:59;5.20;99.90
46562;DHT22;32289;42.688;23.330;2024-03-07T19:33:41;5.10;99.90
46562;DHT22;32289;42.688;23.330;2024-03-07T19:37:25;5.10;99.90
46562;DHT22;32289;42.688;23.330;2024-03-07T19:41:06;5.10;99.90
46562;DHT22;32289;42.688;23.330;2024-03-07T19:44:51;5.00;99.90
46562;DHT22;32289;42.688;23.330;2024-03-07T19:48:34;5.00;99.90
46562;DHT22;32289;42.688;23.330;2024-03-07T19:52:16;5.00;99.90
46562;DHT22;32289;42.688;23.330;2024-03-07T19:55:57;5.10;99.90
46562;DHT22;32289;42.688;23.330;2024-03-07T19:59:39;5.00;99.90
46562;DHT22;32289;42.688;23.330;2024-03-07T20:03:20;5.10;99.90
46562;DHT22;32289;42.688;23.330;2024-03-07T20:07:01;5.30;99.90
46562;DHT22;32289;42.688;23.330;2024-03-07T20:10:42;5.30;99.90
46562;DHT22;32289;42.688;23.330;2024-03-07T20:14:27;5.10;99.90
46562;DHT22;32289;42.688;23.330;2024-03-07T20:18:08;4.90;99.90
46562;DHT22;32289;42.688;23.330;2024-03-07T20:21:49;4.90;99.90
46562;DHT22;32289;42.688;23.330;2024-03-07T20:25:32;5.00;99.90
46562;DHT22;32289;42.688;23.330;2024-03-07T20:29:14;5.00;99.90
46562;DHT22;32289;42.688;23.330;2024-03-07T20:32:55;4.80;99.90
46562;DHT22;32289;42.688;23.330;2024-03-07T20:36:36;4.90;99.90
46562;DHT22;32289;42.688;23.330;2024-03-07T20:40:18;4.90;99.90
46562;DHT22;32289;42.688;23.330;2024-03-07T20:44:05;4.90;99.90
46562;DHT22;32289;42.688;23.330;2024-03-07T20:47:48;4.90;99.90
46562;DHT22;32289;42.688;23.330;2024-03-07T20:51:29;5.10;99.90
46562;DHT22;32289;42.688;23.330;2024-03-07T20:55:14;5.10;99.90
46562;DHT22;32289;42.688;23.330;2024-03-07T20:58:59;5.10;99.90
46562;DHT22;32289;42.688;23.330;2024-03-07T21:02:40;5.10;99.90
46562;DHT22;32289;42.688;23.330;2024-03-07T21:06:21;5.10;99.90
46562;DHT22;32289;42.688;23.330;2024-03-07T21:10:07;5.00;99.90
46562;DHT22;32289;42.688;23.330;2024-03-07T21:13:48;4.90;99.90
46562;DHT22;32289;42.688;23.330;2024-03-07T21:17:29;4.90;99.90
46562;DHT22;32289;42.688;23.330;2024-03-07T21:21:12;5.00;99.90
46562;DHT22;32289;42.688;23.330;2024-03-07T21:24:53;4.90;99.90
46562;DHT22;32289;42.688;23.330;2024-03-07T21:28:34;4.90;99.90
46562;DHT22;32289;42.688;23.330;2024-03-07T21:32:17;4.70;99.90
46562;DHT22;32289;42.688;23.330;2024-03-07T21:35:59;4.80;99.90
46562;DHT22;32289;42.688;23.330;2024-03-07T21:39:41;4.90;99.90
46562;DHT22;32289;42.688;23.330;2024-03-07T21:43:22;4.90;99.90
46562;DHT22;32289;42.688;23.330;2024-03-07T21:47:04;5.00;99.90
46562;DHT22;32289;42.688;23.330;2024-03-07T21:50:45;5.00;99.90
46562;DHT22;32289;42.688;23.330;2024-03-07T21:54:25;4.90;99.90
46562;DHT22;32289;42.688;23.330;2024-03-07T21:58:06;5.00;99.90
46562;DHT22;32289;42.688;23.330;2024-03-07T22:01:49;5.10;99.90
46562;DHT22;32289;42.688;23.330;2024-03-07T22:05:30;5.10;99.90
46562;DHT22;32289;42.688;23.330;2024-03-07T22:09:13;4.90;99.90
46562;DHT22;32289;42.688;23.330;2024-03-07T22:12:53;5.00;99.90
46562;DHT22;32289;42.688;23.330;2024-03-07T22:16:34;5.00;99.90
46562;DHT22;32289;42.688;23.330;2024-03-07T22:20:16;5.00;99.90
46562;DHT22;32289;42.688;23.330;2024-03-07T22:23:57;5.00;99.90
46562;DHT22;32289;42.688;23.330;2024-03-07T22:27:39;5.10;99.90
46562;DHT22;32289;42.688;23.330;2024-03-07T22:31:20;4.90;99.90
46562;DHT22;32289;42.688;23.330;2024-03-07T22:35:00;5.10;99.90
46562;DHT22;32289;42.688;23.330;2024-03-07T22:38:41;4.90;99.90
46562;DHT22;32289;42.688;23.330;2024-03-07T22:42:22;5.00;99.90
46562;DHT22;32289;42.688;23.330;2024-03-07T22:46:04;5.10;99.90
46562;DHT22;32289;42.688;23.330;2024-03-07T22:49:47;5.10;99.90
46562;DHT22;32289;42.688;23.330;2024-03-07T22:53:29;5.10;99.90
46562;DHT22;32289;42.688;23.330;2024-03-07T22:57:10;5.00;99.90
46562;DHT22;32289;42.688;23.330;2024-03-07T23:00:51;5.00;99.90
46562;DHT22;32289;42.688;23.330;2024-03-07T23:04:33;5.10;99.90
46562;DHT22;32289;42.688;23.330;2024-03-07T23:08:13;5.10;99.90
46562;DHT22;32289;42.688;23.330;2024-03-07T23:11:54;5.10;99.90
46562;DHT22;32289;42.688;23.330;2024-03-07T23:15:36;5.10;99.90
46562;DHT22;32289;42.688;23.330;2024-03-07T23:19:16;5.00;99.90
46562;DHT22;32289;42.688;23.330;2024-03-07T23:22:57;4.90;99.90
46562;DHT22;32289;42.688;23.330;2024-03-07T23:26:38;5.00;99.90
46562;DHT22;32289;42.688;23.330;2024-03-07T23:30:19;4.90;99.90
46562;DHT22;32289;42.688;23.330;2024-03-07T23:34:01;4.90;99.90
46562;DHT22;32289;42.688;23.330;2024-03-07T23:37:43;4.90;99.90
46562;DHT22;32289;42.688;23.330;2024-03-07T23:41:27;4.90;99.90
46562;DHT22;32289;42.688;23.330;2024-03-07T23:45:09;5.00;99.90
46562;DHT22;32289;42.688;23.330;2024-03-07T23:48:50;5.00;99.90
46562;DHT22;32289;42.688;23.330;2024-03-07T23:52:32;5.00;99.90